Time;durP1;ratioP1;P1;durP2;ratioP2;P2;SDS_P1;SDS_P2;PMS_P1;PMS_P2;Temp;Humidity;BMP_temperature;BMP_pressure;BME280_temperature;BME280_humidity;BME280_pressure;Samples;Min_cycle;Max_cycle;Signal;HPM_P1;HPM_P2
2022/01/05 00:01:03;;;;;;;79.15;39.40;;;;;;;5.32;86.31;94525.44;5060804;28;20209;-71
2022/01/05 00:03:29;;;;;;;77.63;40.08;;;;;;;5.23;85.67;94520.59;5059776;28;20198;-71
2022/01/05 00:05:56;;;;;;;93.15;41.67;;;;;;;5.09;86.14;94517.56;5059600;28;20948;-71
2022/01/05 00:08:25;;;;;;;81.03;39.60;;;;;;;4.98;87.27;94535.38;5068000;28;20198;-71
2022/01/05 00:10:52;;;;;;;93.82;43.00;;;;;;;4.89;87.16;94529.72;5068548;28;20201;-71
2022/01/05 00:13:19;;;;;;;81.95;42.10;;;;;;;4.59;87.62;94531.16;5068809;28;20207;-71
2022/01/05 00:15:45;;;;;;;101.05;47.40;;;;;;;4.32;88.24;94519.91;5068190;28;20194;-71
2022/01/05 00:18:12;;;;;;;91.93;44.40;;;;;;;4.31;89.06;94528.31;5068735;28;20198;-71
2022/01/05 00:20:39;;;;;;;92.18;43.28;;;;;;;4.18;89.97;94520.19;5068563;28;20548;-71
2022/01/05 00:23:06;;;;;;;91.07;43.15;;;;;;;4.00;91.03;94531.34;5068812;28;20190;-71
2022/01/05 00:25:35;;;;;;;80.93;43.88;;;;;;;4.20;90.10;94537.75;5068550;28;20712;-70
2022/01/05 00:28:01;;;;;;;82.10;41.05;;;;;;;4.34;89.12;94513.16;5068874;28;20195;-71
2022/01/05 00:30:28;;;;;;;89.47;43.05;;;;;;;4.30;89.61;94526.66;5068260;28;20191;-71
2022/01/05 00:32:55;;;;;;;87.03;43.22;;;;;;;4.22;90.23;94529.31;5068136;28;20198;-71
2022/01/05 00:35:22;;;;;;;84.10;42.72;;;;;;;4.42;89.01;94524.75;5068506;28;20214;-71
2022/01/05 00:37:48;;;;;;;85.18;41.90;;;;;;;4.25;89.08;94533.44;5068445;28;20198;-71
2022/01/05 00:40:15;;;;;;;83.10;41.00;;;;;;;4.50;88.89;94521.25;5068289;28;20283;-71
2022/01/05 00:42:43;;;;;;;80.78;39.17;;;;;;;4.75;88.19;94527.47;5068626;28;20659;-71
2022/01/05 00:45:10;;;;;;;88.03;41.92;;;;;;;4.75;87.73;94520.75;5068402;28;20199;-71
2022/01/05 00:47:37;;;;;;;82.72;42.47;;;;;;;4.86;86.91;94532.31;5068589;28;20638;-71
2022/01/05 00:50:05;;;;;;;89.80;43.17;;;;;;;4.64;86.98;94519.31;5072520;28;20197;-71
2022/01/05 00:52:32;;;;;;;94.10;45.00;;;;;;;4.42;87.94;94523.94;5072465;28;20259;-71
2022/01/05 00:54:58;;;;;;;88.40;45.42;;;;;;;4.38;88.53;94518.13;5072339;28;20191;-71
2022/01/05 00:57:25;;;;;;;90.30;42.15;;;;;;;4.52;87.87;94510.31;5072575;28;20275;-71
2022/01/05 00:59:53;;;;;;;86.88;42.95;;;;;;;4.58;87.45;94515.22;5072452;28;20206;-71
2022/01/05 01:02:20;;;;;;;91.00;45.30;;;;;;;4.49;87.94;94509.53;5072635;28;20194;-71
2022/01/05 01:04:46;;;;;;;93.50;44.58;;;;;;;4.16;89.00;94514.34;5072725;28;20575;-71
2022/01/05 01:07:13;;;;;;;96.97;44.00;;;;;;;4.21;88.96;94499.97;5069756;28;20228;-71
2022/01/05 01:09:40;;;;;;;94.28;45.65;;;;;;;4.08;89.96;94506.94;5071824;28;20194;-72
2022/01/05 01:12:08;;;;;;;93.13;44.28;;;;;;;4.19;89.20;94509.25;5071674;28;20214;-72
2022/01/05 01:14:35;;;;;;;93.85;43.30;;;;;;;4.21;88.94;94514.25;5071996;28;20239;-72
2022/01/05 01:17:04;;;;;;;96.90;46.65;;;;;;;4.28;88.49;94511.59;5071642;28;20190;-72
2022/01/05 01:19:30;;;;;;;95.80;44.28;;;;;;;4.16;88.26;94505.97;5071241;28;20213;-72
2022/01/05 01:21:58;;;;;;;85.97;42.33;;;;;;;4.02;89.33;94514.56;5071929;28;20202;-72
2022/01/05 01:24:26;;;;;;;82.60;40.70;;;;;;;4.13;89.11;94511.03;5072398;28;20285;-71
2022/01/05 01:26:53;;;;;;;85.27;42.67;;;;;;;4.02;89.05;94496.97;5072833;28;20299;-71
2022/01/05 01:29:19;;;;;;;85.47;41.88;;;;;;;4.02;88.81;94499.47;5072282;28;20240;-71
2022/01/05 01:31:47;;;;;;;93.68;44.08;;;;;;;4.29;88.00;94489.78;5072078;28;20190;-71
2022/01/05 01:34:17;;;;;;;75.07;37.17;;;;;;;4.63;85.92;94495.84;5072846;28;20226;-71
2022/01/05 01:36:43;;;;;;;96.70;42.28;;;;;;;4.48;86.29;94493.59;5072047;28;20218;-71
2022/01/05 01:39:10;;;;;;;83.50;39.75;;;;;;;4.45;86.62;94498.72;5072347;28;20194;-71
2022/01/05 01:41:37;;;;;;;86.30;41.30;;;;;;;4.23;87.40;94502.47;5070862;28;20287;-71
2022/01/05 01:44:04;;;;;;;93.20;40.80;;;;;;;4.36;87.19;94484.63;5070814;28;20198;-71
2022/01/05 01:46:30;;;;;;;85.32;41.90;;;;;;;4.27;87.17;94481.44;5070468;28;20226;-71
2022/01/05 01:48:57;;;;;;;74.57;37.13;;;;;;;4.66;85.79;94479.84;5070741;28;20198;-71
2022/01/05 01:51:25;;;;;;;91.22;41.03;;;;;;;4.46;86.01;94487.78;5070683;28;20191;-71
2022/01/05 01:53:52;;;;;;;71.93;38.08;;;;;;;4.29;86.19;94485.59;5070714;28;20195;-71
2022/01/05 01:56:21;;;;;;;77.43;40.20;;;;;;;4.19;87.26;94484.13;5071941;28;20229;-71
2022/01/05 01:58:49;;;;;;;77.43;38.33;;;;;;;4.10;87.64;94482.59;5072031;28;20234;-71
2022/01/05 02:01:16;;;;;;;87.97;40.92;;;;;;;4.03;87.50;94481.03;5071392;28;20201;-71
2022/01/05 02:03:43;;;;;;;78.70;37.47;;;;;;;4.23;87.39;94478.16;5072377;28;20229;-71
2022/01/05 02:06:10;;;;;;;69.57;35.22;;;;;;;4.57;85.52;94480.84;5071802;28;20276;-71
2022/01/05 02:08:38;;;;;;;71.55;34.90;;;;;;;4.62;85.16;94486.63;5071896;28;20194;-71
2022/01/05 02:11:06;;;;;;;71.40;37.45;;;;;;;4.40;84.52;94465.28;5071797;28;20195;-71
2022/01/05 02:13:33;;;;;;;67.57;36.97;;;;;;;4.13;86.83;94480.88;5072132;28;20263;-71
2022/01/05 02:15:59;;;;;;;89.93;40.10;;;;;;;4.33;86.32;94479.66;5072014;28;20259;-71
2022/01/05 02:21:14;;;;;;;78.23;35.53;;;;;;;4.24;86.53;94478.97;5071992;28;20281;-71
2022/01/05 02:23:41;;;;;;;79.57;37.40;;;;;;;4.67;85.76;94469.75;5072223;28;20197;-70
2022/01/05 02:26:09;;;;;;;68.93;35.25;;;;;;;4.40;85.35;94472.81;5071943;28;20229;-71
2022/01/05 02:28:36;;;;;;;79.55;35.53;;;;;;;4.44;85.70;94469.38;5071567;28;20273;-71
2022/01/05 02:31:04;;;;;;;82.35;37.25;;;;;;;4.24;86.52;94464.72;5071749;28;20244;-71
2022/01/05 02:33:32;;;;;;;72.00;34.87;;;;;;;4.16;86.77;94474.09;5071646;28;20709;-71
2022/01/05 02:35:58;;;;;;;67.40;34.08;;;;;;;4.07;86.95;94472.59;5071530;28;20279;-71
2022/01/05 02:38:27;;;;;;;72.03;34.70;;;;;;;3.75;87.33;94473.13;5071408;28;20194;-72
2022/01/05 02:40:54;;;;;;;71.28;34.65;;;;;;;3.42;89.50;94472.03;5071702;28;20226;-72
2022/01/05 02:43:20;;;;;;;58.10;31.25;;;;;;;3.84;88.14;94471.31;5071405;28;20198;-71
2022/01/05 02:45:47;;;;;;;69.80;34.00;;;;;;;4.13;86.88;94465.78;5071514;28;20191;-71
2022/01/05 02:48:14;;;;;;;71.22;34.45;;;;;;;3.98;87.44;94465.19;5071761;28;20198;-71
2022/01/05 02:50:41;;;;;;;66.60;33.30;;;;;;;4.01;87.00;94461.78;5071451;28;20194;-70
2022/01/05 02:53:08;;;;;;;69.32;35.22;;;;;;;3.68;87.58;94458.22;5071356;28;20256;-70
2022/01/05 02:55:36;;;;;;;68.95;33.72;;;;;;;3.66;88.14;94450.69;5071436;28;20190;-70
2022/01/05 02:58:04;;;;;;;64.03;32.45;;;;;;;3.84;87.19;94464.63;5071052;28;20732;-72
2022/01/05 03:00:31;;;;;;;66.63;32.95;;;;;;;3.61;88.03;94459.97;5070977;28;20256;-71
2022/01/05 03:02:57;;;;;;;62.72;30.35;;;;;;;3.75;87.89;94453.03;5071458;28;20195;-71
2022/01/05 03:05:24;;;;;;;54.40;29.15;;;;;;;3.74;87.78;94458.91;5071132;28;20255;-72
2022/01/05 03:07:51;;;;;;;61.75;31.02;;;;;;;3.59;87.39;94460.88;5071056;28;20692;-71
2022/01/05 03:10:18;;;;;;;54.40;29.08;;;;;;;3.36;88.26;94447.00;5071044;28;20263;-71
2022/01/05 03:12:47;;;;;;;62.30;30.65;;;;;;;3.32;89.35;94450.41;5070422;28;20194;-71
2022/01/05 03:15:14;;;;;;;59.72;28.42;;;;;;;3.65;88.09;94448.19;5069400;28;20195;-71
2022/01/05 03:17:41;;;;;;;56.03;31.42;;;;;;;3.88;87.44;94441.09;5070796;28;20198;-71
2022/01/05 03:20:10;;;;;;;55.85;30.35;;;;;;;3.98;86.81;94440.06;5070980;28;20194;-71
2022/01/05 03:22:38;;;;;;;57.55;30.13;;;;;;;3.33;88.03;94444.53;5070958;28;20198;-71
2022/01/05 03:25:07;;;;;;;52.20;29.07;;;;;;;3.26;89.66;94442.13;5070814;28;20198;-70
2022/01/05 03:27:33;;;;;;;55.33;28.93;;;;;;;2.99;90.24;94450.88;5070480;28;20218;-71
2022/01/05 03:30:02;;;;;;;51.90;26.67;;;;;;;3.05;90.59;94449.13;5070402;28;20629;-71
2022/01/05 03:32:38;;;;;;;51.70;27.83;;;;;;;3.24;89.78;94444.66;5070592;28;20199;-71
2022/01/05 03:35:05;;;;;;;49.55;27.17;;;;;;;3.51;88.24;94452.59;5070865;28;20253;-70
2022/01/05 03:37:32;;;;;;;48.65;27.52;;;;;;;3.53;86.97;94448.38;5068685;28;20230;-70
2022/01/05 03:39:59;;;;;;;58.40;28.17;;;;;;;3.45;87.62;94440.19;5067988;28;20201;-70
2022/01/05 03:42:26;;;;;;;52.72;27.50;;;;;;;2.81;90.15;94441.13;5068579;28;20251;-70
2022/01/05 03:44:52;;;;;;;59.78;28.33;;;;;;;2.96;91.25;94438.41;5068788;28;20260;-71
2022/01/05 03:47:21;;;;;;;58.80;29.27;;;;;;;3.15;89.20;94437.28;5068241;28;20230;-70
2022/01/05 03:49:48;;;;;;;49.73;27.13;;;;;;;3.24;89.05;94441.31;5068374;28;20247;-71
2022/01/05 03:52:14;;;;;;;48.80;27.13;;;;;;;3.21;88.75;94442.22;5069569;28;20244;-71
2022/01/05 03:54:41;;;;;;;52.15;27.33;;;;;;;3.46;88.33;94436.81;5069969;28;20198;-71
2022/01/05 03:57:08;;;;;;;52.85;26.30;;;;;;;3.47;86.91;94440.94;5070067;28;20206;-71
2022/01/05 03:59:35;;;;;;;42.92;24.48;;;;;;;3.30;88.02;94452.09;5070360;28;20186;-71
2022/01/05 04:02:02;;;;;;;38.88;24.25;;;;;;;3.22;88.58;94423.75;5070143;28;20201;-71
2022/01/05 04:04:30;;;;;;;43.05;23.55;;;;;;;3.12;88.82;94442.34;5070329;28;20264;-71
2022/01/05 04:06:56;;;;;;;40.53;24.27;;;;;;;3.25;89.08;94436.28;5069970;28;20222;-71
2022/01/05 04:09:23;;;;;;;43.70;23.85;;;;;;;3.12;89.21;94426.47;5069987;28;20206;-71
2022/01/05 04:11:50;;;;;;;47.03;25.02;;;;;;;3.31;88.42;94428.66;5069861;28;20689;-71
2022/01/05 04:14:17;;;;;;;43.03;25.08;;;;;;;2.95;89.40;94426.72;5070128;28;20248;-71
2022/01/05 04:16:43;;;;;;;42.17;23.00;;;;;;;3.04;89.82;94429.06;5070192;28;20718;-71
2022/01/05 04:19:10;;;;;;;48.45;22.80;;;;;;;3.12;88.90;94417.25;5069743;28;20627;-71
2022/01/05 04:21:38;;;;;;;48.97;26.00;;;;;;;2.91;89.53;94417.56;5069768;28;20205;-71
2022/01/05 04:24:05;;;;;;;51.45;26.38;;;;;;;3.12;89.43;94419.75;5072695;28;20717;-71
2022/01/05 04:26:32;;;;;;;53.20;26.25;;;;;;;3.50;87.98;94424.16;5073658;28;20652;-71
2022/01/05 04:28:59;;;;;;;52.75;25.58;;;;;;;3.55;87.45;94421.56;5074198;28;20268;-71
2022/01/05 04:31:25;;;;;;;53.33;26.17;;;;;;;3.63;87.14;94412.22;5073740;28;20190;-71
2022/01/05 04:33:52;;;;;;;41.80;24.77;;;;;;;3.47;86.48;94418.34;5073958;28;20252;-71
2022/01/05 04:36:19;;;;;;;51.35;25.92;;;;;;;3.49;86.96;94426.69;5073464;28;20214;-72
2022/01/05 04:38:47;;;;;;;53.15;25.92;;;;;;;3.24;88.09;94428.75;5073799;28;20190;-72
2022/01/05 04:41:15;;;;;;;57.45;26.45;;;;;;;3.48;87.16;94430.03;5073316;28;20226;-72
2022/01/05 04:43:42;;;;;;;50.50;25.50;;;;;;;3.01;88.34;94419.06;5073849;28;20190;-72
2022/01/05 04:46:09;;;;;;;46.78;24.92;;;;;;;3.25;88.42;94440.47;5073922;28;20259;-70
2022/01/05 04:48:36;;;;;;;43.92;25.00;;;;;;;3.45;86.80;94438.50;5073411;28;20230;-71
2022/01/05 04:51:03;;;;;;;52.17;26.67;;;;;;;3.11;87.93;94430.66;5073142;28;20195;-71
2022/01/05 04:53:29;;;;;;;47.85;24.42;;;;;;;3.27;87.56;94428.72;5073670;28;20549;-71
2022/01/05 04:55:59;;;;;;;54.08;26.80;;;;;;;3.00;88.21;94430.78;5073980;28;20205;-71
2022/01/05 04:58:26;;;;;;;51.47;25.83;;;;;;;3.06;88.80;94437.41;5073351;28;20199;-72
2022/01/05 05:00:54;;;;;;;50.97;28.20;;;;;;;3.41;87.73;94440.22;5073358;28;20233;-72
2022/01/05 05:03:20;;;;;;;47.17;25.87;;;;;;;3.69;86.16;94440.59;5073046;28;20263;-71
2022/01/05 05:05:47;;;;;;;47.07;26.67;;;;;;;3.56;85.79;94444.16;5073119;28;20228;-72
2022/01/05 05:08:14;;;;;;;57.30;29.87;;;;;;;3.29;86.26;94452.94;5072108;28;20704;-71
2022/01/05 05:10:41;;;;;;;57.15;29.92;;;;;;;2.86;88.55;94456.94;5071523;28;20391;-71
2022/01/05 05:13:09;;;;;;;57.38;31.80;;;;;;;2.67;89.33;94462.22;5073640;28;20194;-71
2022/01/05 05:15:36;;;;;;;59.37;29.63;;;;;;;2.42;91.21;94455.84;5073100;28;20198;-71
2022/01/05 05:18:10;;;;;;;62.40;31.13;;;;;;;2.61;91.24;94459.78;5076184;28;20185;-72
2022/01/05 05:20:36;;;;;;;58.27;30.23;;;;;;;2.66;90.78;94478.13;5229950;22;20225;-71
2022/01/05 05:23:04;;;;;;;64.47;31.73;;;;;;;2.93;89.69;94471.06;5093264;28;20194;-71
2022/01/05 05:25:31;;;;;;;58.17;30.70;;;;;;;2.66;89.84;94473.09;5093393;28;20189;-71
2022/01/05 05:27:58;;;;;;;58.53;33.65;;;;;;;2.85;89.87;94473.69;5092840;28;20282;-71
2022/01/05 05:30:26;;;;;;;60.23;30.03;;;;;;;3.01;89.32;94474.28;5090968;28;20212;-72
2022/01/05 05:32:55;;;;;;;49.87;26.93;;;;;;;3.21;88.08;94469.84;5091743;28;20202;-72
2022/01/05 05:35:22;;;;;;;54.83;29.03;;;;;;;3.14;87.13;94463.25;5084533;28;20351;-72
2022/01/05 05:37:49;;;;;;;47.60;26.23;;;;;;;3.08;87.99;94471.69;5071025;28;20190;-72
2022/01/05 05:40:16;;;;;;;51.87;28.37;;;;;;;2.86;88.59;94479.53;5071117;28;20198;-72
2022/01/05 05:42:42;;;;;;;55.72;28.00;;;;;;;2.87;89.42;94471.16;5070781;28;20199;-72
2022/01/05 05:45:10;;;;;;;56.60;28.07;;;;;;;3.03;89.05;94472.59;5072153;28;20331;-72
2022/01/05 05:47:38;;;;;;;57.55;30.73;;;;;;;2.88;88.87;94470.31;5072567;28;20712;-73
2022/01/05 05:50:06;;;;;;;53.57;29.13;;;;;;;2.93;89.20;94476.94;5072651;28;20198;-71
2022/01/05 05:52:33;;;;;;;59.47;28.38;;;;;;;2.99;88.71;94465.94;5072410;28;20202;-71
2022/01/05 05:55:00;;;;;;;49.93;29.03;;;;;;;2.85;88.93;94470.34;5072753;28;20252;-72
2022/01/05 05:57:26;;;;;;;58.53;28.10;;;;;;;2.99;88.80;94473.47;5072274;28;20669;-72
2022/01/05 05:59:53;;;;;;;122.30;58.75;;;;;;;3.14;87.64;94473.28;5072142;28;20244;-71
2022/01/05 06:02:20;;;;;;;63.22;34.30;;;;;;;3.25;87.34;94473.94;5072348;28;20198;-72
2022/01/05 06:04:48;;;;;;;63.78;31.63;;;;;;;3.06;88.18;94470.03;5071694;28;20294;-72
2022/01/05 06:07:15;;;;;;;48.05;27.05;;;;;;;3.01;88.93;94465.09;5071709;28;20226;-72
2022/01/05 06:09:41;;;;;;;47.55;26.60;;;;;;;3.61;87.45;94477.56;5072331;28;20240;-71
2022/01/05 06:12:09;;;;;;;57.03;28.40;;;;;;;3.58;87.40;94467.56;5072685;28;20263;-72
2022/01/05 06:14:36;;;;;;;51.27;27.37;;;;;;;4.22;85.82;94458.06;5072349;28;20202;-72
2022/01/05 06:17:05;;;;;;;52.23;26.87;;;;;;;4.48;84.19;94463.41;5072320;28;20248;-72
2022/01/05 06:19:32;;;;;;;47.27;27.70;;;;;;;4.43;82.99;94473.59;5072245;28;20199;-72
2022/01/05 06:22:00;;;;;;;59.27;26.80;;;;;;;4.12;83.29;94484.25;5071815;28;20245;-72
2022/01/05 06:24:26;;;;;;;50.37;27.93;;;;;;;4.05;83.92;94484.34;5072092;28;20195;-73
2022/01/05 06:26:53;;;;;;;71.73;34.03;;;;;;;3.57;85.01;94496.06;5072159;28;20239;-72
2022/01/05 06:29:21;;;;;;;60.97;33.10;;;;;;;3.30;87.61;94496.47;5071796;28;20218;-71
2022/01/05 06:31:48;;;;;;;59.70;34.13;;;;;;;3.32;87.86;94488.06;5071723;28;20286;-72
2022/01/05 06:34:15;;;;;;;61.37;34.30;;;;;;;3.03;88.55;94493.50;5071923;28;20198;-72
2022/01/05 06:36:41;;;;;;;65.20;33.60;;;;;;;3.14;89.95;94485.84;5071536;28;20712;-72
2022/01/05 06:39:10;;;;;;;67.60;34.45;;;;;;;3.46;88.48;94477.81;5071476;28;20198;-72
2022/01/05 06:41:37;;;;;;;68.90;34.77;;;;;;;3.75;87.26;94500.78;5071925;28;20190;-71
2022/01/05 06:44:05;;;;;;;79.80;39.73;;;;;;;3.86;86.18;94492.25;5071637;28;20194;-70
2022/01/05 06:46:31;;;;;;;83.60;43.07;;;;;;;3.89;85.97;94502.25;5071193;28;20259;-72
2022/01/05 06:48:58;;;;;;;91.17;45.93;;;;;;;3.79;86.40;94505.75;5071509;28;20229;-72
2022/01/05 06:51:25;;;;;;;100.57;51.77;;;;;;;3.52;87.57;94485.25;5071199;28;20260;-72
2022/01/05 06:53:51;;;;;;;103.00;50.80;;;;;;;3.55;87.55;94494.41;5071233;28;20198;-72
2022/01/05 06:56:19;;;;;;;92.70;48.30;;;;;;;3.80;87.28;94492.34;5071523;28;20198;-72
2022/01/05 06:58:46;;;;;;;114.07;56.97;;;;;;;3.87;86.69;94492.22;5071218;28;20194;-70
2022/01/05 07:01:13;;;;;;;105.13;52.30;;;;;;;3.76;87.34;94487.34;5071046;28;20252;-70
2022/01/05 07:03:40;;;;;;;128.33;59.80;;;;;;;4.17;86.85;94492.53;5071178;28;20198;-71
2022/01/05 07:06:06;;;;;;;122.63;61.60;;;;;;;5.71;81.89;94482.53;5070957;28;20462;-70
2022/01/05 07:08:33;;;;;;;116.38;59.80;;;;;;;7.66;73.78;94488.06;5071155;28;20226;-70
2022/01/05 07:11:00;;;;;;;122.30;57.45;;;;;;;9.55;66.63;94479.72;5071014;28;20217;-72
2022/01/05 07:13:28;;;;;;;108.03;54.33;;;;;;;11.51;61.19;94473.03;5070581;28;20665;-70
2022/01/05 07:15:55;;;;;;;67.05;34.70;;;;;;;12.16;56.87;94469.06;5070878;28;20252;-71
2022/01/05 07:18:22;;;;;;;61.60;34.85;;;;;;;12.15;57.22;94472.50;5070906;28;20191;-71
2022/01/05 07:20:48;;;;;;;65.47;36.40;;;;;;;12.81;55.10;94474.31;5070167;28;20329;-70
2022/01/05 07:23:15;;;;;;;77.18;38.28;;;;;;;13.61;53.19;94476.84;5068881;28;20198;-71
2022/01/05 07:25:42;;;;;;;79.72;42.83;;;;;;;14.82;50.38;94471.66;5068484;28;20190;-71
2022/01/05 07:28:10;;;;;;;81.68;44.97;;;;;;;15.42;48.11;94471.41;5068810;28;20229;-72
2022/01/05 07:30:38;;;;;;;61.63;35.60;;;;;;;16.61;44.92;94474.03;5068788;28;20195;-72
2022/01/05 07:33:04;;;;;;;56.17;33.13;;;;;;;17.23;44.55;94479.25;5068906;28;20617;-72
2022/01/05 07:35:32;;;;;;;77.38;39.47;;;;;;;16.65;44.50;94470.38;5068605;28;20347;-71
2022/01/05 07:37:58;;;;;;;65.10;36.65;;;;;;;16.20;45.28;94487.81;5070456;28;20224;-72
2022/01/05 07:40:25;;;;;;;76.03;39.10;;;;;;;15.31;47.08;94482.31;5070137;28;20263;-73
2022/01/05 07:42:52;;;;;;;72.68;38.95;;;;;;;13.50;50.93;94484.28;5070749;28;20194;-72
2022/01/05 07:45:19;;;;;;;76.25;40.92;;;;;;;12.82;53.38;94492.09;5070949;28;20194;-73
2022/01/05 07:47:47;;;;;;;97.80;42.45;;;;;;;11.97;55.71;94487.88;5070248;28;20283;-73
2022/01/05 07:50:15;;;;;;;105.05;48.67;;;;;;;11.50;57.01;94491.72;5070342;28;20194;-73
2022/01/05 07:52:44;;;;;;;111.95;50.53;;;;;;;12.03;55.71;94498.59;5070431;28;20222;-72
2022/01/05 07:55:12;;;;;;;103.75;51.33;;;;;;;12.11;56.07;94493.97;5070269;28;20676;-70
2022/01/05 07:57:39;;;;;;;104.40;49.00;;;;;;;13.34;55.03;94481.75;5069468;28;20190;-69
2022/01/05 08:00:07;;;;;;;90.85;45.78;;;;;;;15.39;49.84;94476.69;5070236;28;20520;-71
2022/01/05 08:02:34;;;;;;;85.38;44.53;;;;;;;17.02;46.54;94478.16;5070209;28;20221;-71
2022/01/05 08:05:02;;;;;;;79.38;44.38;;;;;;;17.37;42.05;94473.16;5069955;28;20201;-71
2022/01/05 08:07:29;;;;;;;94.95;47.50;;;;;;;16.89;43.74;94489.25;5070780;28;20199;-70
2022/01/05 08:09:56;;;;;;;86.65;44.85;;;;;;;16.32;44.72;94484.47;5070015;28;20672;-73
2022/01/05 08:12:23;;;;;;;91.50;46.75;;;;;;;16.71;43.33;94490.50;5070079;28;20248;-73
2022/01/05 08:14:50;;;;;;;83.07;44.63;;;;;;;16.43;43.40;94482.94;5069638;28;20194;-73
2022/01/05 08:17:17;;;;;;;84.55;44.47;;;;;;;16.60;44.40;94482.63;5069770;28;20198;-72
2022/01/05 08:19:44;;;;;;;96.10;48.45;;;;;;;16.27;44.14;94473.69;5069659;28;20551;-72
2022/01/05 08:22:13;;;;;;;82.60;46.95;;;;;;;17.95;41.15;94480.22;5069624;28;20241;-73
2022/01/05 08:24:40;;;;;;;89.32;42.53;;;;;;;19.22;38.21;94482.75;5069921;28;20191;-73
2022/01/05 08:27:07;;;;;;;80.68;42.03;;;;;;;19.84;36.67;94478.81;5070133;28;20742;-73
2022/01/05 08:29:33;;;;;;;82.68;44.42;;;;;;;19.06;36.70;94478.88;5069843;28;20234;-73
2022/01/05 08:32:02;;;;;;;79.32;40.92;;;;;;;19.46;37.65;94467.16;5069946;28;20194;-73
2022/01/05 08:34:29;;;;;;;72.70;36.33;;;;;;;19.53;36.34;94465.78;5070362;28;20210;-74
2022/01/05 08:36:56;;;;;;;60.75;34.13;;;;;;;18.68;37.94;94467.97;5069705;28;20217;-73
2022/01/05 08:39:25;;;;;;;50.90;27.10;;;;;;;17.91;39.05;94463.34;5069924;28;20190;-73
2022/01/05 08:41:52;;;;;;;49.63;27.70;;;;;;;17.42;40.91;94471.94;5069888;28;20263;-74
2022/01/05 08:44:19;;;;;;;55.47;30.02;;;;;;;17.24;40.87;94468.91;5069794;28;20190;-73
2022/01/05 08:46:46;;;;;;;50.70;24.92;;;;;;;17.29;40.15;94466.00;5057853;28;20270;-73
2022/01/05 08:49:14;;;;;;;50.70;24.40;;;;;;;16.61;41.63;94474.03;5059758;28;20927;-72
2022/01/05 08:51:41;;;;;;;38.53;21.52;;;;;;;15.92;43.06;94481.06;5059012;28;20207;-73
2022/01/05 08:54:08;;;;;;;38.83;22.42;;;;;;;15.58;44.08;94479.81;5060029;28;20198;-72
2022/01/05 08:56:37;;;;;;;36.85;23.55;;;;;;;17.35;41.09;94476.66;5059264;28;20718;-72
2022/01/05 08:59:04;;;;;;;38.08;20.73;;;;;;;16.18;42.61;94461.44;5059284;28;20233;-71
2022/01/05 09:01:31;;;;;;;34.03;18.13;;;;;;;16.41;43.01;94466.81;5056890;28;20739;-72
2022/01/05 09:03:58;;;;;;;26.63;18.08;;;;;;;17.22;41.17;94464.78;5057842;28;20202;-72
2022/01/05 09:06:24;;;;;;;30.48;16.73;;;;;;;16.11;42.67;94470.44;5057821;28;20202;-72
2022/01/05 09:08:51;;;;;;;27.08;16.58;;;;;;;15.10;45.47;94475.09;5060214;28;20237;-72
2022/01/05 09:11:19;;;;;;;27.65;16.63;;;;;;;15.21;45.73;94458.19;5062744;28;20306;-72
2022/01/05 09:13:47;;;;;;;27.60;16.80;;;;;;;15.02;45.41;94462.78;5063802;28;20198;-72
2022/01/05 09:16:14;;;;;;;30.77;15.98;;;;;;;15.27;45.25;94449.31;5061887;28;20239;-72
2022/01/05 09:18:41;;;;;;;20.77;15.40;;;;;;;15.42;45.63;94453.47;5061401;28;20202;-72
2022/01/05 09:21:08;;;;;;;35.60;16.23;;;;;;;14.81;46.17;94448.72;5060778;28;20229;-73
2022/01/05 09:23:34;;;;;;;24.55;15.23;;;;;;;13.69;49.03;94450.91;5070012;28;20202;-72
2022/01/05 09:26:02;;;;;;;22.83;15.70;;;;;;;13.08;50.89;94444.00;5068497;28;20619;-73
2022/01/05 09:28:29;;;;;;;31.98;15.25;;;;;;;12.81;51.92;94436.91;5069296;28;20226;-72
2022/01/05 09:30:58;;;;;;;26.58;15.30;;;;;;;13.44;52.23;94431.84;5069625;28;20247;-71
2022/01/05 09:33:25;;;;;;;278.88;114.05;;;;;;;13.38;51.05;94426.22;5069404;28;20213;-74
2022/01/05 09:36:01;;;;;;;35.65;18.05;;;;;;;13.02;52.31;94422.19;5070482;28;20211;-73
2022/01/05 09:41:56;;;;;;;25.40;14.77;;;;;;;13.00;51.70;94428.28;5063263;28;20221;-72
2022/01/05 09:44:10;;;;;;;24.63;13.77;;;;;;;12.85;52.16;94428.19;5062572;28;20247;-73
2022/01/05 09:46:57;;;;;;;26.50;12.98;;;;;;;12.19;54.25;94420.53;5062425;28;20198;-73
2022/01/05 09:49:35;;;;;;;20.20;12.88;;;;;;;11.71;55.52;94402.53;5062398;28;20234;-73
2022/01/05 09:55:00;;;;;;;22.88;12.23;;;;;;;11.53;56.16;94409.34;5064380;28;20668;-73
2022/01/05 09:57:28;;;;;;;15.93;11.40;;;;;;;11.40;56.35;94401.44;5061794;28;20529;-73
2022/01/05 09:59:59;;;;;;;24.45;10.55;;;;;;;11.25;56.99;94402.16;5062396;28;20229;-72
2022/01/05 10:02:33;;;;;;;14.73;11.77;;;;;;;10.97;57.19;94361.94;5061657;28;20202;-72
2022/01/05 10:05:07;;;;;;;18.05;11.63;;;;;;;10.94;57.56;94396.84;5054238;28;20601;-73
2022/01/05 10:07:35;;;;;;;17.35;11.30;;;;;;;10.77;58.67;94390.81;5060345;28;20198;-73
2022/01/05 10:10:02;;;;;;;20.23;11.68;;;;;;;10.78;58.23;94377.22;5061723;28;20237;-73
2022/01/05 10:12:29;;;;;;;21.77;10.93;;;;;;;10.93;58.31;94395.19;5062752;28;20209;-72
2022/01/05 10:15:04;;;;;;;19.33;10.55;;;;;;;11.23;57.49;94383.63;5061962;28;20194;-73
2022/01/05 10:17:44;;;;;;;15.82;10.52;;;;;;;10.95;57.73;94383.25;5060756;28;20263;-73
2022/01/05 10:20:15;;;;;;;13.82;10.55;;;;;;;10.97;57.89;94376.38;5060383;28;20210;-73
2022/01/05 10:22:46;;;;;;;17.60;10.75;;;;;;;11.03;57.91;94371.00;5060164;28;20210;-73
2022/01/05 10:25:23;;;;;;;15.52;9.57;;;;;;;11.37;56.89;94368.53;5061080;28;20206;-73
2022/01/05 10:28:07;;;;;;;20.13;9.85;;;;;;;11.47;57.16;94358.72;5063609;28;20198;-73
2022/01/05 10:30:36;;;;;;;14.98;9.77;;;;;;;11.47;56.74;94354.47;5061504;28;20234;-73
2022/01/05 10:33:06;;;;;;;25.48;10.20;;;;;;;11.42;56.43;94353.03;5062263;28;20260;-72
2022/01/05 10:35:57;;;;;;;19.42;9.52;;;;;;;11.00;57.52;94353.34;5061691;28;20295;-73
2022/01/05 10:41:16;;;;;;;18.45;9.13;;;;;;;11.31;57.29;94345.94;5062659;28;20206;-74
2022/01/05 10:44:21;;;;;;;18.23;8.88;;;;;;;11.28;56.89;94333.34;5060979;28;20691;-73
2022/01/05 10:46:51;;;;;;;15.13;9.77;;;;;;;11.51;56.41;94322.91;5046191;28;20209;-72
2022/01/05 10:49:28;;;;;;;16.95;8.90;;;;;;;11.47;56.60;94329.03;5061532;28;20237;-72
2022/01/05 10:51:56;;;;;;;19.33;8.50;;;;;;;11.29;56.78;94327.38;5060762;28;20301;-73
2022/01/05 10:54:25;;;;;;;11.70;8.85;;;;;;;11.32;56.48;94329.78;5068876;28;20201;-71
2022/01/05 10:56:53;;;;;;;18.25;8.90;;;;;;;11.61;55.96;94325.00;5069487;28;20227;-71
2022/01/05 10:59:28;;;;;;;12.75;9.05;;;;;;;11.65;55.75;94322.22;5070369;28;20518;-72
2022/01/05 11:01:55;;;;;;;13.43;8.57;;;;;;;11.49;56.19;94314.50;5070169;28;20236;-72
2022/01/05 11:04:23;;;;;;;11.23;8.30;;;;;;;11.36;55.92;94315.19;5069140;28;20198;-71
2022/01/05 11:07:03;;;;;;;11.32;7.78;;;;;;;11.61;56.24;94312.28;5070505;28;20267;-73
2022/01/05 11:09:31;;;;;;;11.73;8.77;;;;;;;11.76;55.71;94311.50;5071063;28;20225;-72
2022/01/05 11:11:59;;;;;;;16.92;8.95;;;;;;;12.06;54.93;94304.91;5070990;28;20270;-71
2022/01/05 11:14:30;;;;;;;18.30;9.65;;;;;;;11.95;55.27;94296.97;5071386;28;20239;-71
2022/01/05 11:16:59;;;;;;;13.23;9.02;;;;;;;11.63;56.27;94297.75;5069687;28;20623;-72
2022/01/05 11:19:28;;;;;;;15.23;9.68;;;;;;;11.53;56.45;94289.75;5069284;28;20194;-72
2022/01/05 11:21:58;;;;;;;20.05;9.80;;;;;;;11.64;56.48;94286.66;5067816;28;20232;-72
2022/01/05 11:24:28;;;;;;;14.93;9.65;;;;;;;11.91;56.09;94281.03;5067309;28;20190;-71
2022/01/05 11:26:55;;;;;;;17.08;10.10;;;;;;;11.75;56.32;94279.31;5067882;28;20195;-71
2022/01/05 11:29:23;;;;;;;12.55;10.07;;;;;;;11.73;56.80;94276.03;5068568;28;20222;-72
2022/01/05 11:31:51;;;;;;;14.73;10.15;;;;;;;12.14;59.05;94262.00;5069041;28;20732;-73
2022/01/05 11:34:17;;;;;;;12.23;10.18;;;;;;;12.35;55.29;94269.44;5069998;28;20773;-73
2022/01/05 11:36:44;;;;;;;16.08;10.75;;;;;;;12.27;56.98;94257.94;5070458;28;20237;-73